createdAt,value
2022-10-19T00:01:10.695Z,98732.94
2022-10-19T00:03:39.061Z,98743.56
2022-10-19T00:06:14.665Z,98732.06
2022-10-19T00:08:42.991Z,98724.78
2022-10-19T00:11:11.376Z,98729.91
2022-10-19T00:13:39.592Z,98731.72
2022-10-19T00:16:13.568Z,98735.69
2022-10-19T00:18:43.468Z,98734.47
2022-10-19T00:21:13.138Z,98728.47
2022-10-19T00:23:43.679Z,98723.84
2022-10-19T00:26:11.968Z,98723.06
2022-10-19T00:28:40.167Z,98720.16
2022-10-19T00:31:12.532Z,98711.03
2022-10-19T00:33:42.567Z,98712.75
2022-10-19T00:36:16.340Z,98711.31
2022-10-19T00:38:44.559Z,98714.81
2022-10-19T00:41:12.740Z,98714.03
2022-10-19T00:43:55.306Z,98710.44
2022-10-19T00:46:23.507Z,98716.84
2022-10-19T00:48:54.511Z,98704.25
2022-10-19T00:51:22.739Z,98700.00
2022-10-19T00:53:50.859Z,98698.53
2022-10-19T00:56:19.153Z,98687.31
2022-10-19T00:58:47.454Z,98685.53
2022-10-19T01:01:18.714Z,98686.66
2022-10-19T01:03:47.114Z,98694.38
2022-10-19T01:06:18.198Z,98699.25
2022-10-19T01:08:46.444Z,98690.22
2022-10-19T01:11:24.827Z,98696.53
2022-10-19T01:13:57.473Z,98693.50
2022-10-19T01:16:32.804Z,98693.16
2022-10-19T01:19:04.567Z,98697.53
2022-10-19T01:21:37.888Z,98699.28
2022-10-19T01:24:26.624Z,98693.59
2022-10-19T01:27:13.638Z,98690.91
2022-10-19T01:29:52.955Z,98675.63
2022-10-19T01:32:24.799Z,98686.16
2022-10-19T01:34:58.792Z,98688.09
2022-10-19T01:37:33.505Z,98690.84
2022-10-19T01:40:05.518Z,98687.56
2022-10-19T01:42:37.484Z,98704.22
2022-10-19T01:45:11.662Z,98705.00
2022-10-19T01:47:43.166Z,98700.94
2022-10-19T01:50:14.491Z,98696.84
2022-10-19T01:52:43.363Z,98691.41
2022-10-19T01:55:15.231Z,98680.50
2022-10-19T01:57:47.583Z,98680.19
2022-10-19T02:00:18.157Z,98672.50
2022-10-19T02:02:47.893Z,98666.09
2022-10-19T02:05:18.391Z,98657.13
2022-10-19T02:07:48.922Z,98650.75
2022-10-19T02:10:17.300Z,98637.91
2022-10-19T02:12:45.749Z,98632.81
2022-10-19T02:15:16.025Z,98628.53
2022-10-19T02:17:48.057Z,98634.75
2022-10-19T02:20:17.158Z,98626.50
2022-10-19T02:22:45.319Z,98623.72
2022-10-19T02:25:14.162Z,98623.34
2022-10-19T02:27:43.148Z,98606.81
2022-10-19T02:30:12.190Z,98610.91
2022-10-19T02:32:40.485Z,98601.69
2022-10-19T02:35:11.242Z,98609.47
2022-10-19T02:37:39.495Z,98598.78
2022-10-19T02:40:08.478Z,98613.34
2022-10-19T02:42:38.747Z,98606.25
2022-10-19T02:45:09.998Z,98609.28
2022-10-19T02:47:40.223Z,98608.19
2022-10-19T02:50:10.798Z,98601.09
2022-10-19T02:52:38.943Z,98592.97
2022-10-19T02:55:07.586Z,98604.56
2022-10-19T02:57:36.266Z,98599.81
2022-10-19T03:00:05.767Z,98593.31
2022-10-19T03:02:33.850Z,98581.63
2022-10-19T03:05:02.030Z,98579.09
2022-10-19T03:07:32.985Z,98575.06
2022-10-19T03:10:03.289Z,98573.50
2022-10-19T03:12:34.556Z,98573.41
2022-10-19T03:15:02.770Z,98580.25
2022-10-19T03:17:31.965Z,98576.94
2022-10-19T03:20:00.500Z,98579.38
2022-10-19T03:22:28.566Z,98577.00
2022-10-19T03:25:00.392Z,98573.66
2022-10-19T03:27:28.663Z,98566.19
2022-10-19T03:29:56.768Z,98565.81
2022-10-19T03:32:25.003Z,98572.63
2022-10-19T03:34:53.119Z,98576.25
2022-10-19T03:37:21.371Z,98562.22
2022-10-19T03:39:49.575Z,98568.34
2022-10-19T03:42:19.098Z,98561.75
2022-10-19T03:44:47.271Z,98558.69
2022-10-19T03:47:15.343Z,98557.13
2022-10-19T03:49:43.755Z,98553.69
2022-10-19T03:52:11.822Z,98562.72
2022-10-19T03:54:40.009Z,98560.13
2022-10-19T03:57:08.101Z,98554.00
2022-10-19T03:59:37.636Z,98546.00
2022-10-19T04:02:05.741Z,98543.47
2022-10-19T04:04:33.851Z,98543.66
2022-10-19T04:07:02.068Z,98534.00
2022-10-19T04:09:30.260Z,98524.84
2022-10-19T04:11:58.335Z,98524.41
2022-10-19T04:14:32.206Z,98535.00
2022-10-19T04:17:02.643Z,98524.44
2022-10-19T04:19:35.237Z,98531.16
2022-10-19T04:22:03.547Z,98520.09
2022-10-19T04:24:31.626Z,98516.25
2022-10-19T04:26:59.779Z,98510.84
2022-10-19T04:29:29.901Z,98509.69
2022-10-19T04:31:59.233Z,98500.63
2022-10-19T04:34:28.823Z,98495.25
2022-10-19T04:36:59.590Z,98500.28
2022-10-19T04:39:28.043Z,98491.25
2022-10-19T04:41:56.427Z,98489.09
2022-10-19T04:46:57.876Z,98493.69
2022-10-19T04:49:26.120Z,98495.34
2022-10-19T04:51:55.740Z,98492.16
2022-10-19T04:54:24.049Z,98492.81
2022-10-19T04:56:53.952Z,98494.41
2022-10-19T04:59:22.392Z,98497.47
2022-10-19T05:01:50.518Z,98501.41
2022-10-19T05:04:18.773Z,98512.00
2022-10-19T05:06:47.010Z,98503.53
2022-10-19T05:09:16.698Z,98502.03
2022-10-19T05:11:45.001Z,98489.16
2022-10-19T05:14:13.063Z,98482.66
2022-10-19T05:16:41.198Z,98486.63
2022-10-19T05:19:13.907Z,98491.31
2022-10-19T05:21:42.111Z,98487.31
2022-10-19T05:24:13.219Z,98486.97
2022-10-19T05:26:46.017Z,98470.47
2022-10-19T05:29:14.794Z,98480.88
2022-10-19T05:31:43.059Z,98482.63
2022-10-19T05:34:11.253Z,98479.94
2022-10-19T05:36:40.948Z,98484.38
2022-10-19T05:39:10.213Z,98489.81
2022-10-19T05:41:38.374Z,98483.41
2022-10-19T05:44:08.203Z,98482.91
2022-10-19T05:46:36.368Z,98478.13
2022-10-19T05:49:04.579Z,98476.22
2022-10-19T05:51:35.516Z,98477.72
2022-10-19T05:54:04.036Z,98477.84
2022-10-19T05:56:32.974Z,98474.63
2022-10-19T05:59:02.443Z,98476.47
2022-10-19T06:01:32.368Z,98478.22
2022-10-19T06:04:01.029Z,98471.78
2022-10-19T06:06:29.343Z,98473.50
2022-10-19T06:08:59.147Z,98468.19
2022-10-19T06:11:28.252Z,98469.94
2022-10-19T06:13:57.678Z,98471.97
2022-10-19T06:16:26.654Z,98474.91
2022-10-19T06:18:56.577Z,98458.97
2022-10-19T06:21:26.272Z,98451.41
2022-10-19T06:23:54.938Z,98452.22
2022-10-19T06:26:25.155Z,98457.25
2022-10-19T06:28:55.951Z,98457.19
2022-10-19T06:31:24.077Z,98447.03
2022-10-19T06:33:52.306Z,98449.47
2022-10-19T06:36:23.204Z,98447.00
2022-10-19T06:38:53.253Z,98455.88
2022-10-19T06:41:24.995Z,98458.31
2022-10-19T06:43:54.286Z,98448.69
2022-10-19T06:46:23.616Z,98448.66
2022-10-19T06:48:52.706Z,98449.22
2022-10-19T06:51:22.738Z,98448.94
2022-10-19T06:53:54.319Z,98446.84
2022-10-19T06:56:25.811Z,98443.09
2022-10-19T06:58:53.990Z,98442.84
2022-10-19T07:01:22.221Z,98444.78
2022-10-19T07:03:51.866Z,98435.38
2022-10-19T07:06:20.061Z,98437.53
2022-10-19T07:08:49.766Z,98444.94
2022-10-19T07:11:19.092Z,98439.31
2022-10-19T07:13:47.255Z,98439.38
2022-10-19T07:16:20.634Z,98439.47
2022-10-19T07:18:50.346Z,98426.94
2022-10-19T07:21:18.722Z,98435.41
2022-10-19T07:23:48.240Z,98434.34
2022-10-19T07:26:19.552Z,98433.97
2022-10-19T07:28:49.125Z,98432.41
2022-10-19T07:31:20.342Z,98425.22
2022-10-19T07:33:48.589Z,98431.72
2022-10-19T07:36:16.808Z,98431.16
2022-10-19T07:38:44.971Z,98428.16
2022-10-19T07:41:25.197Z,98431.41
2022-10-19T07:44:00.279Z,98431.06
2022-10-19T07:47:54.820Z,98413.81
2022-10-19T07:50:25.416Z,98423.66
2022-10-19T07:53:04.808Z,98428.16
2022-10-19T07:55:35.403Z,98427.28
2022-10-19T07:58:03.848Z,98420.84
2022-10-19T08:00:32.630Z,98419.75
2022-10-19T08:05:51.569Z,98431.53
2022-10-19T08:08:20.017Z,98425.75
2022-10-19T08:10:48.479Z,98437.06
2022-10-19T08:13:16.930Z,98431.50
2022-10-19T08:15:46.488Z,98435.22
2022-10-19T08:18:16.944Z,98437.91
2022-10-19T08:20:46.087Z,98430.88
2022-10-19T08:23:14.729Z,98441.47
2022-10-19T08:25:43.250Z,98429.75
2022-10-19T08:28:12.125Z,98429.19
2022-10-19T08:30:40.756Z,98433.47
2022-10-19T08:33:12.748Z,98425.34
2022-10-19T08:35:42.717Z,98420.22
2022-10-19T08:38:11.195Z,98421.63
2022-10-19T08:40:39.781Z,98420.06
2022-10-19T08:43:15.007Z,98425.28
2022-10-19T08:45:44.363Z,98419.47
2022-10-19T08:48:25.284Z,98422.13
2022-10-19T08:50:55.737Z,98415.63
2022-10-19T08:53:33.024Z,98415.50
2022-10-19T08:56:22.190Z,98418.34
2022-10-19T08:59:14.732Z,98423.56
2022-10-19T09:01:49.858Z,98416.47
2022-10-19T09:04:23.963Z,98410.38
2022-10-19T09:07:22.149Z,98402.72
2022-10-19T09:09:57.576Z,98412.81
2022-10-19T09:12:46.424Z,98410.56
2022-10-19T09:15:20.375Z,98411.94
2022-10-19T09:17:49.138Z,98409.22
2022-10-19T09:20:21.128Z,98389.41
2022-10-19T09:23:01.663Z,98399.00
2022-10-19T09:25:32.036Z,98397.03
2022-10-19T09:28:14.056Z,98413.78
2022-10-19T09:30:44.413Z,98407.06
2022-10-19T09:33:20.471Z,98417.91
2022-10-19T09:35:51.056Z,98413.25
2022-10-19T09:38:25.388Z,98417.00
2022-10-19T09:40:53.922Z,98414.41
2022-10-19T09:43:23.111Z,98410.56
2022-10-19T09:45:55.199Z,98407.25
2022-10-19T09:48:30.465Z,98413.00
2022-10-19T09:51:01.654Z,98414.78
2022-10-19T09:53:31.847Z,98409.72
2022-10-19T09:56:04.549Z,98424.56
2022-10-19T09:58:33.455Z,98417.38
2022-10-19T10:01:03.324Z,98425.81
2022-10-19T10:03:35.380Z,98426.19
2022-10-19T10:06:07.718Z,98426.53
2022-10-19T10:08:40.484Z,98427.81
2022-10-19T10:11:13.838Z,98436.97
2022-10-19T10:13:45.330Z,98429.63
2022-10-19T10:16:17.940Z,98440.69
2022-10-19T10:18:56.048Z,98435.34
2022-10-19T10:21:26.436Z,98429.09
2022-10-19T10:24:06.105Z,98428.31
2022-10-19T10:26:40.050Z,98429.53
2022-10-19T10:29:19.802Z,98430.16
2022-10-19T10:31:50.732Z,98440.06
2022-10-19T10:34:45.571Z,98429.94
2022-10-19T10:37:22.972Z,98433.00
2022-10-19T10:39:57.921Z,98425.69
2022-10-19T10:42:32.356Z,98432.28
2022-10-19T10:45:01.416Z,98430.31
2022-10-19T10:47:31.543Z,98438.53
2022-10-19T10:50:02.955Z,98431.41
2022-10-19T10:52:33.128Z,98432.97
2022-10-19T10:55:15.703Z,98437.25
2022-10-19T10:57:48.252Z,98430.53
2022-10-19T11:00:19.149Z,98431.53
2022-10-19T11:02:53.058Z,98425.13
2022-10-19T11:05:26.665Z,98424.97
2022-10-19T11:08:00.291Z,98433.47
2022-10-19T11:10:35.453Z,98425.00
2022-10-19T11:13:11.878Z,98421.56
2022-10-19T11:15:48.774Z,98421.53
2022-10-19T11:18:21.675Z,98418.63
2022-10-19T11:21:00.477Z,98403.31
2022-10-19T11:23:37.702Z,98395.31
2022-10-19T11:26:19.803Z,98393.50
2022-10-19T11:29:03.945Z,98393.28
2022-10-19T11:31:45.838Z,98395.63
2022-10-19T11:34:33.770Z,98402.28
2022-10-19T11:37:15.967Z,98394.50
2022-10-19T11:39:55.573Z,98399.41
2022-10-19T11:42:38.012Z,98390.69
2022-10-19T11:45:17.223Z,98385.44
2022-10-19T11:48:00.181Z,98380.09
2022-10-19T11:50:37.651Z,98382.03
2022-10-19T11:53:13.560Z,98376.34
2022-10-19T11:55:51.360Z,98371.47
2022-10-19T11:58:53.448Z,98381.53
2022-10-19T12:01:34.065Z,98379.13
2022-10-19T12:04:17.684Z,98384.03
2022-10-19T12:06:56.951Z,98382.38
2022-10-19T12:09:35.276Z,98388.50
2022-10-19T12:12:19.928Z,98387.34
2022-10-19T12:14:53.181Z,98392.94
2022-10-19T12:17:29.387Z,98388.56
2022-10-19T12:20:02.938Z,98403.81
2022-10-19T12:22:33.495Z,98402.38
2022-10-19T12:25:03.423Z,98409.31
2022-10-19T12:27:37.168Z,98413.72
2022-10-19T12:30:14.518Z,98415.19
2022-10-19T12:32:54.532Z,98414.19
2022-10-19T12:35:34.968Z,98409.91
2022-10-19T12:38:08.574Z,98422.75
2022-10-19T12:40:44.727Z,98416.84
2022-10-19T12:43:18.449Z,98420.00
2022-10-19T12:45:55.954Z,98422.25
2022-10-19T12:48:27.663Z,98428.38
2022-10-19T12:51:12.465Z,98419.81
2022-10-19T12:53:44.500Z,98420.88
2022-10-19T12:56:24.133Z,98412.94
2022-10-19T12:59:00.130Z,98411.63
2022-10-19T13:01:44.506Z,98407.72
2022-10-19T13:04:15.436Z,98421.00
2022-10-19T13:06:46.339Z,98415.78
2022-10-19T13:09:25.877Z,98410.31
2022-10-19T13:12:29.279Z,98414.16
2022-10-19T13:14:59.193Z,98425.97
2022-10-19T13:17:46.412Z,98423.13
2022-10-19T13:20:49.581Z,98429.00
2022-10-19T13:23:42.199Z,98436.69
2022-10-19T13:26:34.238Z,98435.06
2022-10-19T13:29:03.378Z,98437.84
2022-10-19T13:31:33.211Z,98435.09
2022-10-19T13:34:11.815Z,98442.63
2022-10-19T13:36:40.503Z,98439.28
2022-10-19T13:39:16.059Z,98448.00
2022-10-19T13:41:52.829Z,98447.41
2022-10-19T13:44:31.069Z,98440.13
2022-10-19T13:47:25.061Z,98446.88
2022-10-19T13:50:17.109Z,98445.31
2022-10-19T13:53:09.082Z,98450.63
2022-10-19T13:56:28.722Z,98453.50
2022-10-19T13:59:31.845Z,98454.94
2022-10-19T14:02:37.878Z,98454.88
2022-10-19T14:05:25.236Z,98451.44
2022-10-19T14:08:09.993Z,98454.13
2022-10-19T14:13:27.499Z,98467.19
2022-10-19T14:15:58.696Z,98465.16
2022-10-19T14:18:29.195Z,98469.19
2022-10-19T14:21:00.919Z,98469.13
2022-10-19T14:23:31.239Z,98471.06
2022-10-19T14:26:01.981Z,98463.63
2022-10-19T14:28:31.354Z,98473.91
2022-10-19T14:31:01.901Z,98474.50
2022-10-19T14:33:33.609Z,98469.13
2022-10-19T14:36:04.042Z,98483.88
2022-10-19T14:38:36.377Z,98486.13
2022-10-19T14:41:06.117Z,98480.06
2022-10-19T14:43:36.148Z,98481.94
2022-10-19T14:46:12.547Z,98475.47
2022-10-19T14:48:42.629Z,98474.59
2022-10-19T14:51:24.549Z,98476.50
2022-10-19T14:53:57.439Z,98490.19
2022-10-19T14:56:34.951Z,98481.97
2022-10-19T14:59:07.420Z,98487.31
2022-10-19T15:01:36.878Z,98482.50
2022-10-19T15:04:06.058Z,98495.66
2022-10-19T15:06:42.438Z,98484.31
2022-10-19T15:09:36.897Z,98495.06
2022-10-19T15:12:18.086Z,98491.94
2022-10-19T15:14:47.429Z,98495.81
2022-10-19T15:17:27.647Z,98499.09
2022-10-19T15:19:58.528Z,98490.34
2022-10-19T15:22:40.888Z,98501.06
2022-10-19T15:25:28.817Z,98506.19
2022-10-19T15:27:57.847Z,98510.59
2022-10-19T15:30:29.340Z,98512.47
2022-10-19T15:33:11.604Z,98505.03
2022-10-19T15:35:42.067Z,98514.44
2022-10-19T15:38:20.663Z,98514.81
2022-10-19T15:40:49.581Z,98515.34
2022-10-19T15:43:50.920Z,98531.50
2022-10-19T15:46:26.040Z,98528.00
2022-10-19T15:48:55.715Z,98526.16
2022-10-19T15:51:55.065Z,98539.31
2022-10-19T15:54:24.979Z,98542.09
2022-10-19T15:56:55.653Z,98542.41
2022-10-19T15:59:24.449Z,98543.94
2022-10-19T16:01:56.117Z,98552.09
2022-10-19T16:04:24.873Z,98546.56
2022-10-19T16:06:53.442Z,98553.16
2022-10-19T16:09:25.852Z,98549.63
2022-10-19T16:11:57.181Z,98551.53
2022-10-19T16:14:26.676Z,98567.09
2022-10-19T16:17:04.207Z,98572.31
2022-10-19T16:19:32.809Z,98562.69
2022-10-19T16:22:01.353Z,98565.78
2022-10-19T16:24:31.325Z,98563.78
2022-10-19T16:26:59.993Z,98569.53
2022-10-19T16:29:29.138Z,98570.75
2022-10-19T16:31:57.797Z,98566.19
2022-10-19T16:34:26.451Z,98560.06
2022-10-19T16:36:55.021Z,98551.88
2022-10-19T16:39:25.630Z,98569.72
2022-10-19T16:41:55.692Z,98572.66
2022-10-19T16:44:24.283Z,98572.50
2022-10-19T16:46:52.783Z,98570.84
2022-10-19T16:49:21.309Z,98579.75
2022-10-19T16:51:52.008Z,98567.09
2022-10-19T16:54:23.459Z,98577.44
2022-10-19T16:56:51.907Z,98577.34
2022-10-19T16:59:21.994Z,98576.81
2022-10-19T17:01:50.760Z,98583.88
2022-10-19T17:04:19.287Z,98578.50
2022-10-19T17:06:48.133Z,98586.47
2022-10-19T17:12:09.508Z,98588.41
2022-10-19T17:14:42.254Z,98591.88
2022-10-19T17:17:12.093Z,98588.44
2022-10-19T17:19:40.866Z,98590.19
2022-10-19T17:22:09.585Z,98572.72
2022-10-19T17:24:39.449Z,98589.25
2022-10-19T17:27:10.931Z,98581.78
2022-10-19T17:29:41.103Z,98594.47
2022-10-19T17:32:09.921Z,98591.75
2022-10-19T17:34:38.520Z,98599.16
2022-10-19T17:37:07.192Z,98602.31
2022-10-19T17:39:38.815Z,98599.31
2022-10-19T17:42:07.569Z,98605.63
2022-10-19T17:44:36.167Z,98610.44
2022-10-19T17:47:06.712Z,98606.88
2022-10-19T17:49:36.017Z,98610.03
2022-10-19T17:52:08.029Z,98603.34
2022-10-19T17:54:43.719Z,98610.63
2022-10-19T17:57:25.853Z,98615.53
2022-10-19T17:59:55.723Z,98607.41
2022-10-19T18:02:26.485Z,98611.34
2022-10-19T18:04:55.495Z,98611.09
2022-10-19T18:07:26.583Z,98619.03
2022-10-19T18:09:55.541Z,98606.72
2022-10-19T18:12:26.935Z,98617.22
2022-10-19T18:14:56.468Z,98612.69
2022-10-19T18:17:27.867Z,98618.88
2022-10-19T18:19:57.373Z,98623.84
2022-10-19T18:22:26.545Z,98622.16
2022-10-19T18:24:55.742Z,98618.00
2022-10-19T18:27:24.779Z,98632.09
2022-10-19T18:29:54.067Z,98635.78
2022-10-19T18:32:23.427Z,98634.66
2022-10-19T18:34:56.213Z,98634.59
2022-10-19T18:37:28.382Z,98632.81
2022-10-19T18:40:00.861Z,98638.25
2022-10-19T18:42:33.833Z,98645.94
2022-10-19T18:45:03.453Z,98639.09
2022-10-19T18:47:32.690Z,98652.69
2022-10-19T18:50:03.219Z,98649.88
2022-10-19T18:52:36.425Z,98646.94
2022-10-19T18:55:09.050Z,98654.47
2022-10-19T18:57:39.160Z,98647.78
2022-10-19T19:00:12.111Z,98651.63
2022-10-19T19:02:46.697Z,98655.72
2022-10-19T19:05:17.979Z,98652.94
2022-10-19T19:07:46.917Z,98653.81
2022-10-19T19:10:15.941Z,98665.53
2022-10-19T19:12:44.643Z,98656.56
2022-10-19T19:15:15.671Z,98668.41
2022-10-19T19:17:44.451Z,98661.56
2022-10-19T19:20:13.300Z,98661.34
2022-10-19T19:22:43.324Z,98658.97
2022-10-19T19:25:11.961Z,98668.81
2022-10-19T19:27:40.442Z,98662.28
2022-10-19T19:30:11.253Z,98668.88
2022-10-19T19:32:39.821Z,98663.81
2022-10-19T19:35:08.636Z,98664.72
2022-10-19T19:37:37.643Z,98667.13
2022-10-19T19:40:09.377Z,98679.31
2022-10-19T19:42:37.905Z,98679.47
2022-10-19T19:45:07.139Z,98667.38
2022-10-19T19:47:35.869Z,98670.66
2022-10-19T19:50:04.833Z,98665.69
2022-10-19T19:52:40.239Z,98679.97
2022-10-19T19:55:11.025Z,98680.44
2022-10-19T19:57:39.625Z,98680.53
2022-10-19T20:00:09.510Z,98691.25
2022-10-19T20:02:40.711Z,98686.13
2022-10-19T20:05:10.181Z,98680.94
2022-10-19T20:07:38.813Z,98684.38
2022-10-19T20:10:08.190Z,98682.75
2022-10-19T20:12:38.055Z,98675.75
2022-10-19T20:15:08.034Z,98696.81
2022-10-19T20:17:36.855Z,98696.28
2022-10-19T20:20:06.391Z,98690.81
2022-10-19T20:22:35.123Z,98696.59
2022-10-19T20:25:03.348Z,98688.00
2022-10-19T20:27:32.232Z,98688.72
2022-10-19T20:30:02.159Z,98698.50
2022-10-19T20:32:31.973Z,98701.94
2022-10-19T20:35:00.428Z,98691.09
2022-10-19T20:37:30.301Z,98695.25
2022-10-19T20:39:58.768Z,98696.69
2022-10-19T20:42:27.158Z,98689.69
2022-10-19T20:44:56.495Z,98687.72
2022-10-19T20:47:26.425Z,98704.03
2022-10-19T20:49:54.903Z,98699.16
2022-10-19T20:52:24.448Z,98694.78
2022-10-19T20:54:52.913Z,98716.97
2022-10-19T20:57:21.667Z,98711.56
2022-10-19T20:59:50.609Z,98717.25
2022-10-19T21:02:19.058Z,98718.38
2022-10-19T21:04:48.951Z,98706.47
2022-10-19T21:07:17.481Z,98731.16
2022-10-19T21:09:45.928Z,98723.84
2022-10-19T21:12:14.346Z,98717.06
2022-10-19T21:14:43.209Z,98721.75
2022-10-19T21:17:11.339Z,98718.47
2022-10-19T21:19:39.790Z,98722.28
2022-10-19T21:22:14.015Z,98718.84
2022-10-19T21:24:42.649Z,98725.56
2022-10-19T21:27:11.312Z,98726.03
2022-10-19T21:29:39.855Z,98723.94
2022-10-19T21:32:08.284Z,98719.94
2022-10-19T21:34:36.695Z,98733.84
2022-10-19T21:37:05.237Z,98731.03
2022-10-19T21:39:35.077Z,98731.69
2022-10-19T21:42:03.781Z,98728.63
2022-10-19T21:44:32.163Z,98727.63
2022-10-19T21:47:03.721Z,98737.88
2022-10-19T21:49:32.266Z,98749.53
2022-10-19T21:52:03.620Z,98746.16
2022-10-19T21:54:32.248Z,98745.47
2022-10-19T21:57:03.151Z,98756.88
2022-10-19T21:59:31.672Z,98759.06
2022-10-19T22:02:00.200Z,98759.09
2022-10-19T22:04:28.882Z,98755.97
2022-10-19T22:06:59.612Z,98764.31
2022-10-19T22:09:28.175Z,98770.75
2022-10-19T22:11:56.587Z,98766.84
2022-10-19T22:14:26.501Z,98762.59
2022-10-19T22:16:56.145Z,98774.13
2022-10-19T22:19:26.352Z,98779.59
2022-10-19T22:21:57.525Z,98778.63
2022-10-19T22:24:26.005Z,98774.25
2022-10-19T22:26:54.437Z,98784.06
2022-10-19T22:29:22.841Z,98786.19
2022-10-19T22:31:52.690Z,98785.44
2022-10-19T22:34:21.164Z,98786.41
2022-10-19T22:36:49.730Z,98792.38
2022-10-19T22:39:18.522Z,98793.66
2022-10-19T22:41:46.648Z,98796.59
2022-10-19T22:44:15.131Z,98794.44
2022-10-19T22:46:43.557Z,98790.22
2022-10-19T22:49:13.586Z,98788.34
2022-10-19T22:51:42.189Z,98793.16
2022-10-19T22:54:10.572Z,98800.22
2022-10-19T22:56:39.061Z,98789.22
2022-10-19T22:59:08.331Z,98794.63
2022-10-19T23:01:38.258Z,98790.34
2022-10-19T23:04:07.201Z,98802.81
2022-10-19T23:06:36.673Z,98802.56
2022-10-19T23:09:05.440Z,98799.47
2022-10-19T23:11:33.562Z,98805.88
2022-10-19T23:14:02.042Z,98810.41
2022-10-19T23:16:30.476Z,98816.84
2022-10-19T23:18:58.815Z,98809.00
2022-10-19T23:21:27.248Z,98810.50
2022-10-19T23:23:57.148Z,98811.88
2022-10-19T23:26:26.095Z,98813.66
2022-10-19T23:28:54.198Z,98818.44
2022-10-19T23:31:25.103Z,98832.03
2022-10-19T23:33:54.542Z,98839.50
2022-10-19T23:36:24.622Z,98836.66
2022-10-19T23:38:54.145Z,98832.56
2022-10-19T23:41:24.146Z,98835.81
2022-10-19T23:43:52.767Z,98828.75
2022-10-19T23:46:21.368Z,98835.16
2022-10-19T23:48:49.849Z,98837.97
2022-10-19T23:51:20.560Z,98846.06
2022-10-19T23:53:51.096Z,98851.66
2022-10-19T23:56:21.566Z,98846.22
2022-10-19T23:58:51.958Z,98843.59
